createdAt,value
2022-12-13T00:00:44.689Z,100638.41
2022-12-13T00:03:15.935Z,100639.28
2022-12-13T00:05:47.183Z,100618.91
2022-12-13T00:08:18.525Z,100624.41
2022-12-13T00:11:02.686Z,100629.06
2022-12-13T00:13:34.300Z,100628.09
2022-12-13T00:16:08.389Z,100635.91
2022-12-13T00:18:39.999Z,100629.88
2022-12-13T00:21:14.790Z,100629.88
2022-12-13T00:23:47.199Z,100624.66
2022-12-13T00:26:24.635Z,100624.72
2022-12-13T00:28:58.415Z,100614.09
2022-12-13T00:34:23.474Z,100593.56
2022-12-13T00:36:55.308Z,100620.84
2022-12-13T00:39:26.794Z,100597.47
2022-12-13T00:41:58.157Z,100624.06
2022-12-13T00:44:29.472Z,100632.59
2022-12-13T00:47:00.779Z,100634.19
2022-12-13T00:49:32.049Z,100638.63
2022-12-13T00:52:03.441Z,100634.28
2022-12-13T00:54:34.864Z,100634.19
2022-12-13T00:57:06.131Z,100614.69
2022-12-13T00:59:37.387Z,100629.03
2022-12-13T01:02:08.640Z,100621.31
2022-12-13T01:04:40.040Z,100629.53
2022-12-13T01:07:11.295Z,100597.97
2022-12-13T01:09:42.627Z,100619.03
2022-12-13T01:12:13.881Z,100620.41
2022-12-13T01:14:45.136Z,100614.03
2022-12-13T01:17:16.416Z,100612.69
2022-12-13T01:19:47.715Z,100607.69
2022-12-13T01:22:19.038Z,100618.94
2022-12-13T01:24:50.326Z,100616.38
2022-12-13T01:27:21.616Z,100612.03
2022-12-13T01:29:52.864Z,100610.34
2022-12-13T01:32:24.285Z,100597.84
2022-12-13T01:34:55.596Z,100614.53
2022-12-13T01:37:26.901Z,100614.44
2022-12-13T01:39:58.611Z,100608.25
2022-12-13T01:42:30.108Z,100584.50
2022-12-13T01:45:12.106Z,100609.28
2022-12-13T01:47:50.851Z,100591.75
2022-12-13T01:50:26.644Z,100609.28
2022-12-13T01:53:00.232Z,100595.13
2022-12-13T01:55:41.320Z,100605.75
2022-12-13T01:58:14.888Z,100598.03
2022-12-13T02:00:47.625Z,100598.81
2022-12-13T02:03:22.019Z,100570.50
2022-12-13T02:06:12.873Z,100591.66
2022-12-13T02:08:45.647Z,100582.56
2022-12-13T02:11:17.028Z,100591.34
2022-12-13T02:13:48.323Z,100588.69
2022-12-13T02:16:45.540Z,100587.72
2022-12-13T02:19:38.376Z,100592.69
2022-12-13T02:22:56.989Z,100595.91
2022-12-13T02:25:45.578Z,100585.28
2022-12-13T02:28:38.959Z,100597.03
2022-12-13T02:31:18.106Z,100597.84
2022-12-13T02:33:56.667Z,100586.41
2022-12-13T02:36:38.543Z,100584.63
2022-12-13T02:39:30.332Z,100561.53
2022-12-13T02:42:21.973Z,100579.47
2022-12-13T02:45:17.174Z,100574.34
2022-12-13T02:47:55.653Z,100572.72
2022-12-13T02:50:27.596Z,100569.34
2022-12-13T02:53:00.855Z,100560.50
2022-12-13T02:56:13.528Z,100580.53
2022-12-13T02:58:48.992Z,100548.91
2022-12-13T03:01:40.370Z,100576.59
2022-12-13T03:05:00.015Z,100572.03
2022-12-13T03:07:49.622Z,100567.59
2022-12-13T03:10:31.337Z,100573.63
2022-12-13T03:13:27.287Z,100573.44
2022-12-13T03:16:07.803Z,100581.03
2022-12-13T03:18:40.637Z,100573.13
2022-12-13T03:21:12.184Z,100543.63
2022-12-13T03:23:43.449Z,100573.22
2022-12-13T03:26:18.719Z,100566.59
2022-12-13T03:28:51.215Z,100553.19
2022-12-13T03:31:22.549Z,100559.88
2022-12-13T03:33:53.932Z,100552.44
2022-12-13T03:36:25.606Z,100538.94
2022-12-13T03:38:57.133Z,100549.78
2022-12-13T03:41:32.727Z,100552.22
2022-12-13T03:44:05.912Z,100524.38
2022-12-13T03:46:37.208Z,100540.41
2022-12-13T03:49:11.373Z,100544.50
2022-12-13T03:51:46.623Z,100531.66
2022-12-13T03:54:17.946Z,100526.56
2022-12-13T03:56:49.190Z,100541.78
2022-12-13T03:59:20.684Z,100543.69
2022-12-13T04:01:52.070Z,100530.00
2022-12-13T04:04:23.394Z,100515.78
2022-12-13T04:06:54.628Z,100533.47
2022-12-13T04:09:25.911Z,100531.72
2022-12-13T04:12:15.818Z,100533.34
2022-12-13T04:14:47.074Z,100513.84
2022-12-13T04:17:18.312Z,100529.88
2022-12-13T04:19:49.585Z,100538.50
2022-12-13T04:22:24.852Z,100521.69
2022-12-13T04:24:56.335Z,100542.03
2022-12-13T04:27:27.579Z,100542.19
2022-12-13T04:29:58.963Z,100533.47
2022-12-13T04:32:30.281Z,100540.75
2022-12-13T04:35:01.831Z,100521.66
2022-12-13T04:37:33.191Z,100538.78
2022-12-13T04:40:05.143Z,100540.94
2022-12-13T04:42:36.547Z,100538.50
2022-12-13T04:45:09.194Z,100546.97
2022-12-13T04:47:40.443Z,100548.22
2022-12-13T04:50:13.512Z,100538.00
2022-12-13T04:52:44.858Z,100526.78
2022-12-13T04:55:16.515Z,100465.97
2022-12-13T04:57:48.146Z,100538.38
2022-12-13T05:00:21.946Z,100534.97
2022-12-13T05:02:53.310Z,100526.53
2022-12-13T05:05:24.819Z,100529.25
2022-12-13T05:07:56.094Z,100527.66
2022-12-13T05:10:34.245Z,100527.03
2022-12-13T05:13:09.073Z,100516.72
2022-12-13T05:15:40.391Z,100512.25
2022-12-13T05:18:11.692Z,100521.28
2022-12-13T05:20:42.999Z,100497.69
2022-12-13T05:23:14.297Z,100515.47
2022-12-13T05:25:54.102Z,100527.78
2022-12-13T05:28:28.940Z,100527.91
2022-12-13T05:31:23.150Z,100516.00
2022-12-13T05:34:01.427Z,100506.38
2022-12-13T05:36:33.028Z,100507.44
2022-12-13T05:39:04.292Z,100503.78
2022-12-13T05:41:36.936Z,100509.19
2022-12-13T05:44:10.295Z,100501.25
2022-12-13T05:46:41.847Z,100506.41
2022-12-13T05:49:13.091Z,100510.34
2022-12-13T05:51:44.430Z,100493.13
2022-12-13T05:54:15.839Z,100512.94
2022-12-13T05:56:47.180Z,100512.06
2022-12-13T05:59:18.776Z,100509.53
2022-12-13T06:01:50.115Z,100513.00
2022-12-13T06:04:22.652Z,100515.72
2022-12-13T06:06:54.923Z,100434.63
2022-12-13T06:09:26.219Z,100518.56
2022-12-13T06:12:00.995Z,100520.69
2022-12-13T06:14:32.692Z,100496.34
2022-12-13T06:17:04.584Z,100515.06
2022-12-13T06:19:35.840Z,100524.03
2022-12-13T06:22:07.194Z,100524.31
2022-12-13T06:24:38.812Z,100520.16
2022-12-13T06:27:10.335Z,100505.91
2022-12-13T06:29:42.054Z,100507.78
2022-12-13T06:32:13.734Z,100517.38
2022-12-13T06:34:44.976Z,100503.19
2022-12-13T06:37:16.279Z,100513.78
2022-12-13T06:39:48.151Z,100507.44
2022-12-13T06:42:22.239Z,100463.03
2022-12-13T06:44:56.176Z,100517.53
2022-12-13T06:47:32.152Z,100520.00
2022-12-13T06:50:05.560Z,100507.44
2022-12-13T06:52:38.036Z,100506.91
2022-12-13T06:55:09.682Z,100492.06
2022-12-13T06:57:41.435Z,100494.38
2022-12-13T07:00:13.573Z,100516.75
2022-12-13T07:02:44.947Z,100515.41
2022-12-13T07:05:16.265Z,100522.91
2022-12-13T07:07:47.694Z,100517.41
2022-12-13T07:10:22.927Z,100509.75
2022-12-13T07:12:54.360Z,100539.19
2022-12-13T07:15:25.614Z,100541.44
2022-12-13T07:17:56.877Z,100528.66
2022-12-13T07:20:28.196Z,100492.16
2022-12-13T07:22:59.526Z,100536.16
2022-12-13T07:25:30.772Z,100533.00
2022-12-13T07:28:05.277Z,100540.41
2022-12-13T07:30:40.482Z,100544.22
2022-12-13T07:33:13.939Z,100528.31
2022-12-13T07:36:00.549Z,100477.22
2022-12-13T07:38:31.805Z,100541.38
2022-12-13T07:41:04.044Z,100530.44
2022-12-13T07:43:35.960Z,100538.34
2022-12-13T07:46:08.117Z,100542.56
2022-12-13T07:48:39.404Z,100528.44
2022-12-13T07:51:14.844Z,100546.81
2022-12-13T07:53:46.107Z,100537.69
2022-12-13T07:56:17.369Z,100547.25
2022-12-13T07:58:48.713Z,100557.72
2022-12-13T08:01:20.054Z,100556.84
2022-12-13T08:03:51.380Z,100520.59
2022-12-13T08:06:22.682Z,100557.66
2022-12-13T08:08:57.628Z,100538.88
2022-12-13T08:11:28.920Z,100552.06
2022-12-13T08:14:00.532Z,100566.16
2022-12-13T08:16:31.981Z,100536.97
2022-12-13T08:19:04.723Z,100575.00
2022-12-13T08:21:55.816Z,100569.09
2022-12-13T08:24:30.003Z,100564.81
2022-12-13T08:27:03.189Z,100566.69
2022-12-13T08:29:36.172Z,100562.31
2022-12-13T08:32:10.109Z,100551.91
2022-12-13T08:34:42.157Z,100562.69
2022-12-13T08:37:13.653Z,100564.59
2022-12-13T08:39:44.990Z,100553.59
2022-12-13T08:42:20.087Z,100554.69
2022-12-13T08:44:53.272Z,100525.88
2022-12-13T08:47:26.849Z,100516.34
2022-12-13T08:50:02.961Z,100547.50
2022-12-13T08:52:40.368Z,100558.16
2022-12-13T08:55:14.670Z,100563.59
2022-12-13T08:57:46.063Z,100552.53
2022-12-13T09:00:19.778Z,100557.97
2022-12-13T09:02:51.279Z,100554.75
2022-12-13T09:05:34.249Z,100533.94
2022-12-13T09:08:24.080Z,100549.44
2022-12-13T09:10:59.417Z,100533.88
2022-12-13T09:13:33.191Z,100553.72
2022-12-13T09:16:14.330Z,100557.47
2022-12-13T09:18:56.082Z,100557.81
2022-12-13T09:21:31.769Z,100541.41
2022-12-13T09:24:03.598Z,100530.31
2022-12-13T09:26:38.314Z,100558.06
2022-12-13T09:29:11.717Z,100559.28
2022-12-13T09:31:47.103Z,100553.53
2022-12-13T09:34:24.033Z,100531.88
2022-12-13T09:36:55.305Z,100542.16
2022-12-13T09:39:33.029Z,100557.34
2022-12-13T09:42:10.587Z,100530.50
2022-12-13T09:45:03.247Z,100540.69
2022-12-13T09:47:47.473Z,100555.81
2022-12-13T09:50:27.082Z,100532.44
2022-12-13T09:53:01.161Z,100539.91
2022-12-13T09:55:44.108Z,100548.13
2022-12-13T09:58:21.514Z,100548.47
2022-12-13T10:00:55.551Z,100530.22
2022-12-13T10:03:26.915Z,100526.31
2022-12-13T10:06:00.623Z,100553.13
2022-12-13T10:08:57.521Z,100528.78
2022-12-13T10:11:31.819Z,100550.91
2022-12-13T10:14:16.174Z,100536.94
2022-12-13T10:16:51.893Z,100551.41
2022-12-13T10:19:30.206Z,100525.28
2022-12-13T10:22:04.596Z,100538.75
2022-12-13T10:24:52.812Z,100546.19
2022-12-13T10:27:29.312Z,100517.28
2022-12-13T10:30:06.458Z,100534.28
2022-12-13T10:32:54.914Z,100537.00
2022-12-13T10:35:29.197Z,100530.97
2022-12-13T10:38:03.258Z,100515.34
2022-12-13T10:40:48.814Z,100520.72
2022-12-13T10:43:26.267Z,100524.38
2022-12-13T10:45:59.798Z,100524.66
2022-12-13T10:48:39.405Z,100520.75
2022-12-13T10:51:17.839Z,100520.44
2022-12-13T10:53:58.813Z,100503.38
2022-12-13T10:56:37.107Z,100495.00
2022-12-13T10:59:16.992Z,100510.50
2022-12-13T11:01:48.771Z,100510.16
2022-12-13T11:04:31.491Z,100515.88
2022-12-13T11:07:22.915Z,100509.56
2022-12-13T11:09:54.205Z,100500.44
2022-12-13T11:12:27.196Z,100503.38
2022-12-13T11:15:07.628Z,100497.50
2022-12-13T11:17:49.679Z,100496.97
2022-12-13T11:20:27.174Z,100500.06
2022-12-13T11:23:04.606Z,100468.78
2022-12-13T11:25:40.744Z,100483.28
2022-12-13T11:28:37.602Z,100486.13
2022-12-13T11:31:19.079Z,100459.91
2022-12-13T11:34:11.428Z,100470.59
2022-12-13T11:37:06.071Z,100478.81
2022-12-13T11:39:43.178Z,100471.16
2022-12-13T11:42:38.355Z,100474.81
2022-12-13T11:45:25.482Z,100452.09
2022-12-13T11:48:09.449Z,100461.06
2022-12-13T11:50:46.002Z,100451.41
2022-12-13T11:53:46.299Z,100439.84
2022-12-13T11:56:31.561Z,100464.38
2022-12-13T11:59:19.113Z,100459.22
2022-12-13T12:02:04.877Z,100462.66
2022-12-13T12:05:05.758Z,100436.34
2022-12-13T12:08:05.650Z,100454.81
2022-12-13T12:10:50.080Z,100458.47
2022-12-13T12:13:29.040Z,100451.59
2022-12-13T12:16:13.334Z,100441.06
2022-12-13T12:18:44.793Z,100454.44
2022-12-13T12:22:05.074Z,100443.22
2022-12-13T12:24:48.076Z,100445.97
2022-12-13T12:27:50.158Z,100419.75
2022-12-13T12:30:59.237Z,100440.81
2022-12-13T12:33:58.440Z,100438.03
2022-12-13T12:36:51.827Z,100437.00
2022-12-13T12:39:29.888Z,100443.00
2022-12-13T12:42:26.478Z,100436.00
2022-12-13T12:45:55.911Z,100424.66
2022-12-13T12:49:00.737Z,100435.00
2022-12-13T12:51:36.742Z,100417.41
2022-12-13T12:54:33.181Z,100425.34
2022-12-13T12:57:21.130Z,100425.28
2022-12-13T13:00:03.217Z,100419.78
2022-12-13T13:02:42.840Z,100410.78
2022-12-13T13:05:32.156Z,100420.28
2022-12-13T13:08:15.729Z,100388.47
2022-12-13T13:10:49.770Z,100408.44
2022-12-13T13:13:35.475Z,100425.88
2022-12-13T13:16:27.014Z,100417.94
2022-12-13T13:19:00.579Z,100419.50
2022-12-13T13:21:33.669Z,100409.78
2022-12-13T13:24:07.072Z,100399.91
2022-12-13T13:26:44.539Z,100415.69
2022-12-13T13:29:27.343Z,100422.53
2022-12-13T13:32:11.755Z,100411.94
2022-12-13T13:34:45.621Z,100410.97
2022-12-13T13:37:25.688Z,100415.28
2022-12-13T13:40:00.523Z,100413.50
2022-12-13T13:42:32.867Z,100410.06
2022-12-13T13:45:24.713Z,100410.06
2022-12-13T13:48:14.651Z,100411.59
2022-12-13T13:51:12.557Z,100420.25
2022-12-13T13:54:25.643Z,100414.78
2022-12-13T13:57:33.178Z,100409.28
2022-12-13T14:00:41.019Z,100411.78
2022-12-13T14:03:58.345Z,100410.63
2022-12-13T14:07:01.054Z,100396.44
2022-12-13T14:10:07.805Z,100407.75
2022-12-13T14:13:21.283Z,100413.63
2022-12-13T14:16:37.250Z,100414.28
2022-12-13T14:19:20.682Z,100413.19
2022-12-13T14:22:08.795Z,100386.63
2022-12-13T14:25:23.276Z,100407.63
2022-12-13T14:28:01.030Z,100412.56
2022-12-13T14:30:33.405Z,100414.16
2022-12-13T14:33:04.812Z,100404.44
2022-12-13T14:35:36.076Z,100406.06
2022-12-13T14:38:22.652Z,100382.16
2022-12-13T14:40:58.546Z,100397.88
2022-12-13T14:43:34.816Z,100363.22
2022-12-13T14:46:07.661Z,100395.63
2022-12-13T14:48:49.259Z,100352.97
2022-12-13T14:51:30.948Z,100284.84
2022-12-13T14:54:04.711Z,100294.47
2022-12-13T14:56:53.401Z,100296.00
2022-12-13T14:59:25.512Z,100333.69
2022-12-13T15:02:00.275Z,100408.16
2022-12-13T15:04:34.235Z,100394.75
2022-12-13T15:07:25.138Z,100397.19
2022-12-13T15:10:00.629Z,100379.41
2022-12-13T15:12:32.064Z,100402.88
2022-12-13T15:15:08.405Z,100393.94
2022-12-13T15:17:40.237Z,100374.16
2022-12-13T15:20:31.424Z,100390.84
2022-12-13T15:23:18.808Z,100383.66
2022-12-13T15:25:57.361Z,100379.97
2022-12-13T15:28:33.909Z,100363.59
2022-12-13T15:31:06.283Z,100361.84
2022-12-13T15:33:48.207Z,100381.84
2022-12-13T15:36:27.166Z,100372.72
2022-12-13T15:39:01.576Z,100379.00
2022-12-13T15:41:42.963Z,100380.75
2022-12-13T15:44:26.157Z,100363.78
2022-12-13T15:47:28.730Z,100378.63
2022-12-13T15:50:05.171Z,100375.81
2022-12-13T15:52:38.980Z,100378.19
2022-12-13T15:55:10.682Z,100382.50
2022-12-13T15:57:54.205Z,100376.31
2022-12-13T16:00:31.806Z,100375.31
2022-12-13T16:03:11.141Z,100377.75
2022-12-13T16:05:49.952Z,100382.81
2022-12-13T16:08:37.406Z,100363.13
2022-12-13T16:11:09.151Z,100382.97
2022-12-13T16:13:47.548Z,100383.63
2022-12-13T16:16:29.787Z,100399.50
2022-12-13T16:19:01.116Z,100406.31
2022-12-13T16:21:32.426Z,100388.56
2022-12-13T16:24:03.849Z,100381.38
2022-12-13T16:26:35.161Z,100398.81
2022-12-13T16:29:11.604Z,100396.94
2022-12-13T16:31:44.013Z,100397.69
2022-12-13T16:34:18.196Z,100400.63
2022-12-13T16:36:49.552Z,100391.06
2022-12-13T16:39:21.091Z,100400.63
2022-12-13T16:41:53.948Z,100394.47
2022-12-13T16:44:35.902Z,100396.22
2022-12-13T16:47:18.292Z,100393.47
2022-12-13T16:49:51.758Z,100380.28
2022-12-13T16:52:23.042Z,100370.47
2022-12-13T16:54:54.289Z,100372.06
2022-12-13T16:57:25.552Z,100361.34
2022-12-13T16:59:56.798Z,100369.03
2022-12-13T17:02:28.116Z,100359.41
2022-12-13T17:04:59.408Z,100358.34
2022-12-13T17:07:30.872Z,100349.31
2022-12-13T17:10:02.835Z,100365.81
2022-12-13T17:12:34.099Z,100354.47
2022-12-13T17:15:06.330Z,100354.47
2022-12-13T17:17:38.949Z,100350.88
2022-12-13T17:20:13.168Z,100362.00
2022-12-13T17:22:45.103Z,100357.50
2022-12-13T17:25:16.804Z,100360.78
2022-12-13T17:27:48.200Z,100349.50
2022-12-13T17:30:19.548Z,100346.75
2022-12-13T17:32:50.876Z,100354.44
2022-12-13T17:35:22.214Z,100350.16
2022-12-13T17:37:54.662Z,100348.44
2022-12-13T17:40:26.003Z,100344.16
2022-12-13T17:42:57.308Z,100346.03
2022-12-13T17:45:28.568Z,100341.75
2022-12-13T17:47:59.937Z,100343.53
2022-12-13T17:50:31.209Z,100332.28
2022-12-13T17:53:02.472Z,100305.06
2022-12-13T17:55:33.734Z,100305.19
2022-12-13T17:58:05.701Z,100315.22
2022-12-13T18:00:37.667Z,100315.50
2022-12-13T18:03:08.972Z,100328.50
2022-12-13T18:05:40.388Z,100319.03
2022-12-13T18:08:11.953Z,100291.75
2022-12-13T18:10:43.214Z,100304.28
2022-12-13T18:13:14.776Z,100310.47
2022-12-13T18:15:46.052Z,100287.28
2022-12-13T18:18:17.790Z,100314.81
2022-12-13T18:20:49.591Z,100313.09
2022-12-13T18:23:21.404Z,100313.03
2022-12-13T18:25:59.644Z,100316.50
2022-12-13T18:28:30.993Z,100320.69
2022-12-13T18:31:04.754Z,100321.69
2022-12-13T18:33:36.344Z,100323.44
2022-12-13T18:36:08.854Z,100264.72
2022-12-13T18:38:42.378Z,100313.09
2022-12-13T18:41:20.094Z,100316.56
2022-12-13T18:43:59.556Z,100311.34
2022-12-13T18:46:34.469Z,100316.44
2022-12-13T18:49:06.532Z,100315.56
2022-12-13T18:51:37.925Z,100299.69
2022-12-13T18:54:09.511Z,100312.03
2022-12-13T18:56:40.964Z,100306.69
2022-12-13T18:59:12.395Z,100312.75
2022-12-13T19:01:44.215Z,100294.03
2022-12-13T19:04:15.536Z,100333.44
2022-12-13T19:06:46.779Z,100323.78
2022-12-13T19:09:18.180Z,100305.19
2022-12-13T19:11:49.754Z,100320.25
2022-12-13T19:14:25.423Z,100315.03
2022-12-13T19:16:58.372Z,100292.16
2022-12-13T19:19:29.721Z,100314.38
2022-12-13T19:22:00.966Z,100300.97
2022-12-13T19:24:32.245Z,100316.03
2022-12-13T19:27:03.594Z,100314.25
2022-12-13T19:29:34.968Z,100288.75
2022-12-13T19:32:06.955Z,100314.03
2022-12-13T19:34:38.500Z,100307.09
2022-12-13T19:37:10.468Z,100290.25
2022-12-13T19:39:41.799Z,100310.38
2022-12-13T19:42:13.107Z,100303.44
2022-12-13T19:44:44.363Z,100310.25
2022-12-13T19:47:16.312Z,100303.31
2022-12-13T19:49:47.724Z,100305.91
2022-12-13T19:52:19.766Z,100299.78
2022-12-13T19:54:51.026Z,100296.19
2022-12-13T19:57:22.344Z,100294.38
2022-12-13T19:59:53.716Z,100294.38
2022-12-13T20:02:25.804Z,100295.75
2022-12-13T20:04:57.051Z,100296.75
2022-12-13T20:07:28.627Z,100294.13
2022-12-13T20:09:59.993Z,100293.88
2022-12-13T20:12:37.010Z,100263.91
2022-12-13T20:15:11.892Z,100277.19
2022-12-13T20:17:43.146Z,100285.88
2022-12-13T20:20:14.531Z,100277.25
2022-12-13T20:22:46.560Z,100270.31
2022-12-13T20:25:19.812Z,100272.00
2022-12-13T20:27:51.090Z,100267.69
2022-12-13T20:30:22.494Z,100246.53
2022-12-13T20:32:54.198Z,100243.81
2022-12-13T20:35:25.607Z,100248.28
2022-12-13T20:37:56.940Z,100265.06
2022-12-13T20:40:28.188Z,100255.22
2022-12-13T20:42:59.462Z,100181.22
2022-12-13T20:45:32.036Z,100241.13
2022-12-13T20:48:03.387Z,100256.81
2022-12-13T20:50:34.887Z,100261.22
2022-12-13T20:53:06.233Z,100237.41
2022-12-13T20:55:38.105Z,100251.50
2022-12-13T20:58:10.307Z,100228.44
2022-12-13T21:00:41.637Z,100231.69
2022-12-13T21:03:12.921Z,100217.53
2022-12-13T21:05:46.438Z,100238.63
2022-12-13T21:08:37.221Z,100225.41
2022-12-13T21:11:26.916Z,100241.09
2022-12-13T21:14:18.544Z,100234.03
2022-12-13T21:17:00.039Z,100169.66
2022-12-13T21:19:39.794Z,100214.75
2022-12-13T21:22:12.690Z,100221.63
2022-12-13T21:24:43.957Z,100215.56
2022-12-13T21:27:15.212Z,100188.19
2022-12-13T21:29:46.496Z,100183.03
2022-12-13T21:32:17.809Z,100213.88
2022-12-13T21:34:49.064Z,100208.53
2022-12-13T21:37:20.320Z,100207.75
2022-12-13T21:39:51.651Z,100191.00
2022-12-13T21:42:22.893Z,100198.94
2022-12-13T21:44:58.896Z,100203.97
2022-12-13T21:47:33.188Z,100202.97
2022-12-13T21:50:04.806Z,100197.69
2022-12-13T21:52:36.122Z,100195.03
2022-12-13T21:55:37.914Z,100197.00
2022-12-13T21:58:17.940Z,100194.47
2022-12-13T22:00:49.279Z,100164.56
2022-12-13T22:03:20.554Z,100193.59
2022-12-13T22:05:51.890Z,100185.84
2022-12-13T22:08:23.154Z,100195.50
2022-12-13T22:11:17.754Z,100169.94
2022-12-13T22:13:52.255Z,100158.66
2022-12-13T22:16:23.571Z,100163.06
2022-12-13T22:18:55.479Z,100181.50
2022-12-13T22:21:26.957Z,100143.69
2022-12-13T22:23:58.302Z,100171.94
2022-12-13T22:26:29.567Z,100136.81
2022-12-13T22:29:00.837Z,100146.25
2022-12-13T22:31:33.511Z,100165.91
2022-12-13T22:34:04.828Z,100147.31
2022-12-13T22:36:36.172Z,100168.47
2022-12-13T22:39:07.704Z,100161.69
2022-12-13T22:41:38.967Z,100159.91
2022-12-13T22:44:14.027Z,100161.69
2022-12-13T22:46:45.352Z,100160.94
2022-12-13T22:49:16.761Z,100146.06
2022-12-13T22:51:48.245Z,100155.66
2022-12-13T22:54:19.525Z,100159.22
2022-12-13T22:56:51.670Z,100147.97
2022-12-13T22:59:22.917Z,100150.47
2022-12-13T23:02:02.111Z,100156.66
2022-12-13T23:04:34.108Z,100145.38
2022-12-13T23:07:05.877Z,100136.75
2022-12-13T23:09:37.209Z,100119.00
2022-12-13T23:12:29.008Z,100136.63
2022-12-13T23:15:00.239Z,100132.72
2022-12-13T23:17:31.601Z,100132.84
2022-12-13T23:20:04.349Z,100107.31
2022-12-13T23:22:35.676Z,100138.91
2022-12-13T23:25:07.352Z,100131.16
2022-12-13T23:27:38.616Z,100125.00
2022-12-13T23:30:10.668Z,100119.22
2022-12-13T23:32:42.219Z,100100.78
2022-12-13T23:35:13.490Z,100117.69
2022-12-13T23:37:44.774Z,100113.47
2022-12-13T23:40:19.813Z,100062.53
2022-12-13T23:42:51.097Z,100115.56
2022-12-13T23:45:23.506Z,100108.81
2022-12-13T23:47:54.784Z,100106.16
2022-12-13T23:50:26.171Z,100098.50
2022-12-13T23:52:57.451Z,100072.06
2022-12-13T23:55:28.693Z,100106.34
2022-12-13T23:57:59.945Z,100099.38
